Time;durP1;ratioP1;P1;durP2;ratioP2;P2;SDS_P1;SDS_P2;PMS_P1;PMS_P2;Temp;Humidity;BMP_temperature;BMP_pressure;BME280_temperature;BME280_humidity;BME280_pressure;Samples;Min_cycle;Max_cycle;Signal;HPM_P1;HPM_P2
2021/04/09 00:00:12;;;;;;;0.20;0.20;;;;;;;4.58;65.39;98658.44;5074905;28;20186;-60
2021/04/09 00:02:37;;;;;;;0.20;0.20;;;;;;;4.43;65.99;98666.72;5055214;28;20068;-59
2021/04/09 00:05:07;;;;;;;0.20;0.20;;;;;;;4.32;65.99;98659.94;5074728;28;20498;-60
2021/04/09 00:07:33;;;;;;;0.20;0.20;;;;;;;4.19;66.42;98671.53;5055197;28;20064;-59
2021/04/09 00:09:59;;;;;;;0.43;0.43;;;;;;;4.08;66.62;98672.09;5072534;28;20049;-59
2021/04/09 00:12:25;;;;;;;0.20;0.20;;;;;;;4.02;66.69;98684.59;5074885;28;20421;-58
2021/04/09 00:14:51;;;;;;;0.20;0.20;;;;;;;3.96;66.72;98670.94;5054792;28;20054;-60
2021/04/09 00:17:16;;;;;;;1.17;1.08;;;;;;;3.88;66.85;98679.22;5074597;28;20421;-60
2021/04/09 00:19:42;;;;;;;0.20;0.20;;;;;;;3.78;66.99;98679.53;5072670;28;20056;-59
2021/04/09 00:22:08;;;;;;;0.20;0.20;;;;;;;3.68;66.95;98679.84;5074649;28;20122;-60
2021/04/09 00:24:34;;;;;;;0.20;0.20;;;;;;;3.56;67.20;98684.97;5074588;28;20052;-59
2021/04/09 00:26:59;;;;;;;0.20;0.20;;;;;;;3.51;67.31;98692.84;5074644;28;20067;-60
2021/04/09 00:29:26;;;;;;;0.20;0.20;;;;;;;3.55;66.87;98688.72;5072967;28;20055;-59
2021/04/09 00:31:52;;;;;;;0.20;0.20;;;;;;;3.66;66.54;98695.50;5054093;28;20044;-58
2021/04/09 00:34:18;;;;;;;0.25;0.25;;;;;;;3.75;66.10;98690.81;5072382;28;20048;-61
2021/04/09 00:36:43;;;;;;;0.20;0.20;;;;;;;3.82;65.90;98691.72;5074040;28;20103;-59
2021/04/09 00:39:10;;;;;;;3.97;0.50;;;;;;;3.89;65.76;98697.19;5074201;28;20529;-60
2021/04/09 00:41:38;;;;;;;0.20;0.20;;;;;;;3.92;65.42;98694.94;5074159;28;20083;-59
2021/04/09 00:44:09;;;;;;;0.20;0.20;;;;;;;3.97;65.48;98697.91;5074176;28;20048;-60
2021/04/09 00:46:35;;;;;;;0.20;0.20;;;;;;;3.96;65.32;98698.94;5074000;28;20593;-60
2021/04/09 00:49:02;;;;;;;0.20;0.20;;;;;;;3.97;65.22;98692.47;5073861;28;20139;-60
2021/04/09 00:51:28;;;;;;;0.20;0.20;;;;;;;4.01;65.31;98701.09;5073818;28;20049;-59
2021/04/09 00:53:54;;;;;;;0.20;0.20;;;;;;;4.05;65.14;98702.38;5073798;28;20041;-60
2021/04/09 00:56:26;;;;;;;0.20;0.20;;;;;;;4.07;65.00;98708.44;5084192;28;20043;-60
2021/04/09 00:58:52;;;;;;;0.20;0.20;;;;;;;4.11;65.06;98711.59;5073532;28;20418;-60
2021/04/09 01:01:18;;;;;;;0.20;0.20;;;;;;;4.11;64.87;98709.75;5073624;28;20048;-59
2021/04/09 01:03:44;;;;;;;0.20;0.20;;;;;;;4.10;65.04;98721.63;5055776;28;20064;-58
2021/04/09 01:06:10;;;;;;;0.10;0.10;;;;;;;4.07;65.21;98713.88;5073778;28;20410;-58
2021/04/09 01:08:36;;;;;;;0.20;0.20;;;;;;;4.08;65.13;98717.44;5073629;28;20136;-60
2021/04/09 01:11:03;;;;;;;0.85;0.57;;;;;;;4.04;65.03;98719.69;5073244;28;20105;-60
2021/04/09 01:13:29;;;;;;;0.20;0.20;;;;;;;4.03;65.27;98728.88;5073701;28;20110;-60
2021/04/09 01:15:55;;;;;;;0.20;0.20;;;;;;;4.02;65.23;98728.06;5073525;28;20056;-59
2021/04/09 01:18:46;;;;;;;0.25;0.25;;;;;;;4.00;65.15;98737.44;5073563;28;20063;-58
2021/04/09 01:21:25;;;;;;;1.65;1.38;;;;;;;3.96;65.30;98730.69;5073579;28;20056;-58
2021/04/09 01:24:11;;;;;;;0.20;0.20;;;;;;;3.90;65.27;98736.91;5053217;28;20052;-59
2021/04/09 01:27:24;;;;;;;0.20;0.20;;;;;;;3.91;65.36;98738.59;5072262;28;20041;-59
2021/04/09 01:30:01;;;;;;;0.20;0.20;;;;;;;3.95;64.97;98731.75;5073167;28;20144;-58
2021/04/09 01:32:28;;;;;;;0.20;0.20;;;;;;;4.01;64.88;98720.09;5073116;28;20093;-59
2021/04/09 01:34:58;;;;;;;0.20;0.20;;;;;;;4.02;64.87;98719.06;5073256;28;20060;-61
2021/04/09 01:37:28;;;;;;;0.20;0.20;;;;;;;4.09;64.99;98717.22;5071261;28;20510;-59
2021/04/09 01:40:19;;;;;;;0.20;0.20;;;;;;;4.24;64.57;98727.19;5072983;28;20043;-60
2021/04/09 01:42:52;;;;;;;0.95;0.50;;;;;;;4.36;64.11;98718.31;4994526;28;20053;-60
2021/04/09 01:45:19;;;;;;;0.63;0.63;;;;;;;4.51;64.08;98720.94;5010973;28;20056;-59
2021/04/09 01:47:45;;;;;;;0.20;0.20;;;;;;;4.65;63.60;98727.31;4994332;28;20042;-60
2021/04/09 01:50:15;;;;;;;0.20;0.20;;;;;;;4.68;63.73;98726.06;5011068;28;20451;-59
2021/04/09 01:52:43;;;;;;;0.20;0.20;;;;;;;4.64;63.87;98727.47;5019376;28;20049;-59
2021/04/09 01:55:12;;;;;;;0.20;0.20;;;;;;;4.67;63.96;98732.56;5011671;28;20045;-60
2021/04/09 01:57:40;;;;;;;0.20;0.20;;;;;;;4.65;63.92;98729.19;5028729;28;20566;-60
2021/04/09 02:00:11;;;;;;;0.10;0.10;;;;;;;4.70;64.08;98740.31;5028569;28;20048;-59
2021/04/09 02:02:38;;;;;;;0.20;0.20;;;;;;;4.70;64.05;98743.03;5028687;28;20033;-61
2021/04/09 02:05:05;;;;;;;0.20;0.20;;;;;;;4.74;64.08;98744.28;5026961;28;20602;-60
2021/04/09 02:07:31;;;;;;;0.45;0.45;;;;;;;4.84;63.64;98741.22;5027793;28;20423;-60
2021/04/09 02:09:59;;;;;;;0.30;0.30;;;;;;;4.95;63.71;98747.97;5026029;28;20519;-60
2021/04/09 02:12:27;;;;;;;0.20;0.20;;;;;;;5.01;63.65;98753.47;5028196;28;20156;-63
2021/04/09 02:14:56;;;;;;;0.20;0.20;;;;;;;5.12;63.17;98752.06;5026088;28;20042;-60
2021/04/09 02:17:23;;;;;;;0.52;0.52;;;;;;;5.22;63.25;98755.25;5028266;28;20041;-61
2021/04/09 02:19:49;;;;;;;0.20;0.20;;;;;;;5.33;62.97;98764.75;5062329;28;20398;-60
2021/04/09 02:22:17;;;;;;;0.20;0.20;;;;;;;5.39;62.91;98760.38;5087301;28;20056;-60
2021/04/09 02:24:43;;;;;;;0.20;0.20;;;;;;;5.48;62.84;98758.31;5059222;28;20437;-60
2021/04/09 02:27:10;;;;;;;0.20;0.20;;;;;;;5.52;62.75;98760.44;5081679;28;20522;-59
2021/04/09 02:29:36;;;;;;;0.57;0.57;;;;;;;5.53;62.88;98753.94;5083579;28;20052;-62
2021/04/09 02:32:03;;;;;;;0.10;0.10;;;;;;;5.56;62.84;98741.78;5083456;28;20130;-60
2021/04/09 02:34:28;;;;;;;0.20;0.20;;;;;;;5.65;62.81;98746.00;5071940;28;20056;-60
2021/04/09 02:36:55;;;;;;;0.17;0.17;;;;;;;5.72;62.64;98735.13;5082625;28;20154;-60
2021/04/09 02:39:26;;;;;;;0.20;0.20;;;;;;;5.87;62.56;98737.69;5090286;28;20051;-60
2021/04/09 02:41:58;;;;;;;0.20;0.20;;;;;;;6.03;62.22;98740.06;5091395;28;20094;-61
2021/04/09 02:44:24;;;;;;;1.25;0.50;;;;;;;6.15;61.96;98743.00;5082626;28;20051;-59
2021/04/09 02:47:02;;;;;;;0.20;0.20;;;;;;;6.23;61.87;98742.81;5072972;28;20048;-60
2021/04/09 02:49:38;;;;;;;0.10;0.10;;;;;;;6.31;61.87;98739.03;5092134;28;20060;-60
2021/04/09 02:52:06;;;;;;;0.30;0.30;;;;;;;6.39;61.87;98746.16;5088085;28;20408;-59
2021/04/09 02:54:34;;;;;;;0.13;0.13;;;;;;;6.42;61.79;98743.88;5092084;28;20044;-59
2021/04/09 02:57:02;;;;;;;1.02;0.57;;;;;;;6.43;61.95;98747.44;5091891;28;20067;-61
2021/04/09 02:59:30;;;;;;;0.10;0.10;;;;;;;6.40;62.06;98740.50;5057274;28;20540;-60
2021/04/09 03:01:56;;;;;;;0.10;0.10;;;;;;;6.42;62.12;98749.34;5091716;28;20048;-60
2021/04/09 03:04:23;;;;;;;0.20;0.20;;;;;;;6.42;62.18;98762.97;5091363;28;20048;-60
2021/04/09 03:06:49;;;;;;;0.20;0.20;;;;;;;6.37;62.27;98762.75;5090914;28;20113;-59
2021/04/09 03:09:15;;;;;;;0.20;0.20;;;;;;;6.29;62.57;98769.25;5074201;28;20588;-61
2021/04/09 03:11:44;;;;;;;0.20;0.20;;;;;;;6.22;62.56;98762.94;5073678;28;20087;-60
2021/04/09 03:14:11;;;;;;;0.20;0.20;;;;;;;6.20;62.81;98759.59;5092287;28;20136;-63
2021/04/09 03:16:43;;;;;;;0.13;0.13;;;;;;;6.19;62.85;98757.91;5091844;28;20060;-60
2021/04/09 03:19:11;;;;;;;0.35;0.35;;;;;;;6.19;62.88;98757.91;5092281;28;20422;-62
2021/04/09 03:21:36;;;;;;;0.15;0.15;;;;;;;6.14;62.79;98768.59;5095948;28;20051;-59
2021/04/09 03:24:03;;;;;;;0.20;0.20;;;;;;;6.13;62.87;98764.19;5095793;28;20060;-60
2021/04/09 03:26:29;;;;;;;1.20;0.40;;;;;;;6.09;62.84;98774.66;5095659;28;20059;-60
2021/04/09 03:28:55;;;;;;;0.15;0.15;;;;;;;6.10;62.86;98778.25;5096072;28;20561;-60
2021/04/09 03:31:21;;;;;;;0.20;0.20;;;;;;;6.11;62.77;98780.75;5077447;28;20044;-59
2021/04/09 03:33:46;;;;;;;0.28;0.22;;;;;;;6.20;62.58;98795.03;5095703;28;20055;-60
2021/04/09 03:36:12;;;;;;;0.10;0.10;;;;;;;6.20;62.59;98788.72;5077198;28;20052;-59
2021/04/09 03:38:38;;;;;;;0.20;0.20;;;;;;;6.16;62.73;98788.31;5095635;28;20143;-59
2021/04/09 03:41:04;;;;;;;0.20;0.20;;;;;;;6.17;62.69;98791.88;5077213;28;20114;-59
2021/04/09 03:43:29;;;;;;;0.20;0.20;;;;;;;6.21;62.61;98796.69;5095544;28;20048;-63
2021/04/09 03:45:55;;;;;;;0.20;0.20;;;;;;;6.14;62.69;98795.88;5095720;28;20055;-60
2021/04/09 03:48:21;;;;;;;0.20;0.20;;;;;;;6.09;62.90;98791.00;5075072;28;20056;-59
2021/04/09 03:50:47;;;;;;;0.10;0.10;;;;;;;6.11;62.89;98797.13;5095579;28;20047;-60
2021/04/09 03:53:12;;;;;;;0.10;0.10;;;;;;;6.09;62.80;98796.47;5095314;28;20155;-59
2021/04/09 03:55:38;;;;;;;0.73;0.73;;;;;;;6.02;62.89;98803.81;5092962;28;20052;-60
2021/04/09 03:58:04;;;;;;;0.20;0.20;;;;;;;5.96;63.09;98802.72;5095225;28;20072;-59
2021/04/09 04:00:30;;;;;;;0.80;0.80;;;;;;;6.02;62.78;98801.09;5095074;28;20073;-60
2021/04/09 04:02:55;;;;;;;0.20;0.20;;;;;;;6.19;62.53;98808.88;5094793;28;20048;-59
2021/04/09 04:05:22;;;;;;;0.10;0.10;;;;;;;6.35;62.14;98796.75;5094992;28;20474;-59
2021/04/09 04:07:48;;;;;;;0.22;0.22;;;;;;;6.45;61.91;98799.91;5095200;28;20055;-60
2021/04/09 04:10:14;;;;;;;0.20;0.20;;;;;;;6.50;61.69;98802.81;5094679;28;20056;-59
2021/04/09 04:12:40;;;;;;;0.20;0.20;;;;;;;6.56;61.71;98807.44;5094717;28;20043;-60
2021/04/09 04:15:07;;;;;;;0.20;0.20;;;;;;;6.62;61.63;98803.88;5094526;28;20055;-60
2021/04/09 04:17:33;;;;;;;0.10;0.10;;;;;;;6.72;61.45;98811.66;5092330;28;20090;-59
2021/04/09 04:19:59;;;;;;;0.10;0.10;;;;;;;6.81;61.33;98815.00;5094593;28;20059;-60
2021/04/09 04:22:25;;;;;;;0.40;0.40;;;;;;;6.82;61.40;98816.69;5094350;28;20052;-59
2021/04/09 04:24:51;;;;;;;0.20;0.20;;;;;;;6.89;61.32;98816.69;5073883;28;20056;-59
2021/04/09 04:27:17;;;;;;;0.10;0.10;;;;;;;6.86;61.36;98817.97;5074433;28;20044;-59
2021/04/09 04:29:42;;;;;;;0.10;0.10;;;;;;;6.73;61.77;98823.41;5093892;28;20044;-60
2021/04/09 04:32:08;;;;;;;0.20;0.20;;;;;;;6.64;62.11;98820.91;5093878;28;20093;-60
2021/04/09 04:34:34;;;;;;;0.20;0.20;;;;;;;6.68;61.98;98821.31;5094232;28;20413;-60
2021/04/09 04:37:00;;;;;;;0.25;0.25;;;;;;;6.68;61.74;98826.75;5094530;28;20074;-61
2021/04/09 04:39:26;;;;;;;0.20;0.20;;;;;;;6.74;61.81;98834.09;5076282;28;20058;-59
2021/04/09 04:41:52;;;;;;;0.17;0.17;;;;;;;6.79;61.61;98838.97;5094291;28;20059;-61
2021/04/09 04:44:18;;;;;;;0.30;0.30;;;;;;;6.83;61.73;98834.72;5073648;28;20048;-61
2021/04/09 04:46:44;;;;;;;0.10;0.10;;;;;;;6.90;61.46;98851.94;5093936;28;20121;-61
2021/04/09 04:49:10;;;;;;;0.10;0.10;;;;;;;6.91;61.43;98839.16;5092388;28;20048;-60
2021/04/09 04:51:36;;;;;;;0.20;0.20;;;;;;;6.94;61.41;98839.56;5094063;28;20442;-60
2021/04/09 04:54:02;;;;;;;0.20;0.20;;;;;;;6.98;61.39;98840.84;5094510;28;20102;-61
2021/04/09 04:56:28;;;;;;;0.20;0.20;;;;;;;7.05;61.30;98837.25;5093890;28;20059;-60
2021/04/09 04:58:53;;;;;;;0.17;0.17;;;;;;;7.16;60.94;98836.63;5094066;28;20052;-59
2021/04/09 05:01:19;;;;;;;0.17;0.17;;;;;;;7.30;60.60;98840.16;5093938;28;20416;-60
2021/04/09 05:03:45;;;;;;;0.10;0.10;;;;;;;7.43;60.43;98847.50;5094104;28;20052;-60
2021/04/09 05:06:11;;;;;;;0.35;0.35;;;;;;;7.58;60.22;98855.44;5094099;28;20079;-60
2021/04/09 05:08:37;;;;;;;0.75;0.75;;;;;;;7.58;60.32;98853.53;5093562;28;20139;-60
2021/04/09 05:11:03;;;;;;;0.10;0.10;;;;;;;7.63;60.27;98864.69;5093460;28;20473;-60
2021/04/09 05:13:28;;;;;;;0.43;0.43;;;;;;;7.76;60.13;98868.41;5093564;28;20048;-60
2021/04/09 05:15:54;;;;;;;0.20;0.20;;;;;;;7.82;60.08;98873.03;5093654;28;20120;-59
2021/04/09 05:18:20;;;;;;;0.22;0.22;;;;;;;7.83;60.07;98872.81;5093614;28;20088;-59
2021/04/09 05:20:46;;;;;;;0.20;0.20;;;;;;;7.84;60.13;98873.66;5093593;28;20059;-60
2021/04/09 05:23:12;;;;;;;0.73;0.73;;;;;;;7.84;60.26;98884.59;5093402;28;20056;-60
2021/04/09 05:25:37;;;;;;;0.40;0.40;;;;;;;7.89;60.22;98884.75;5093196;28;20101;-60
2021/04/09 05:28:04;;;;;;;0.28;0.28;;;;;;;7.98;60.12;98891.69;5093056;28;20052;-61
2021/04/09 05:30:30;;;;;;;0.38;0.38;;;;;;;8.09;59.89;98875.66;5072852;28;20567;-59
2021/04/09 05:32:55;;;;;;;0.45;0.45;;;;;;;8.23;59.59;98869.91;5093061;28;20114;-60
2021/04/09 05:35:23;;;;;;;0.20;0.20;;;;;;;8.34;59.45;98865.63;5093123;28;20051;-60
2021/04/09 05:37:48;;;;;;;0.40;0.40;;;;;;;8.32;59.58;98856.81;5092745;28;20048;-60
2021/04/09 05:40:15;;;;;;;0.20;0.20;;;;;;;8.33;59.57;98863.97;5092810;28;20055;-60
2021/04/09 05:42:41;;;;;;;0.22;0.22;;;;;;;8.41;59.48;98868.34;5092065;28;20044;-59
2021/04/09 05:45:08;;;;;;;0.40;0.40;;;;;;;8.56;59.22;98855.22;5092915;28;20056;-60
2021/04/09 05:47:33;;;;;;;0.20;0.20;;;;;;;8.81;58.64;98864.53;5092891;28;20544;-60
2021/04/09 05:49:59;;;;;;;0.20;0.20;;;;;;;9.12;58.19;98863.66;5093090;28;20057;-60
2021/04/09 05:52:25;;;;;;;0.45;0.45;;;;;;;9.24;57.80;98872.78;5072648;28;20048;-59
2021/04/09 05:54:51;;;;;;;0.57;0.57;;;;;;;9.15;58.25;98874.16;5092921;28;20138;-61
2021/04/09 05:57:16;;;;;;;0.35;0.35;;;;;;;9.16;58.48;98869.50;5093012;28;20083;-60
2021/04/09 05:59:42;;;;;;;0.45;0.30;;;;;;;9.18;58.39;98864.66;5092791;28;20063;-60
2021/04/09 06:02:08;;;;;;;0.30;0.30;;;;;;;9.36;58.12;98869.31;5090472;28;20060;-60
2021/04/09 06:04:34;;;;;;;0.20;0.20;;;;;;;9.58;57.69;98873.31;5092887;28;20567;-59
2021/04/09 06:06:59;;;;;;;0.20;0.20;;;;;;;9.67;57.66;98882.06;5057947;28;20082;-59
2021/04/09 06:09:25;;;;;;;0.10;0.10;;;;;;;9.78;57.51;98875.03;5092452;28;20470;-60
2021/04/09 06:11:51;;;;;;;0.10;0.10;;;;;;;9.65;57.65;98867.78;5092368;28;20139;-59
2021/04/09 06:14:21;;;;;;;0.10;0.10;;;;;;;9.60;58.00;98867.63;5092721;28;20143;-61
2021/04/09 06:16:46;;;;;;;0.17;0.17;;;;;;;9.75;57.69;98861.75;5074016;28;20463;-60
2021/04/09 06:19:12;;;;;;;0.20;0.20;;;;;;;9.89;57.37;98856.94;5092301;28;20052;-59
2021/04/09 06:21:39;;;;;;;0.10;0.10;;;;;;;10.05;57.40;98861.81;5090253;28;20102;-60
2021/04/09 06:24:06;;;;;;;0.20;0.20;;;;;;;10.10;57.15;98847.41;5092170;28;20043;-59
2021/04/09 06:26:32;;;;;;;0.25;0.25;;;;;;;10.15;57.43;98853.03;5092163;28;20047;-59
2021/04/09 06:28:58;;;;;;;0.20;0.20;;;;;;;10.21;57.42;98865.00;5091974;28;20052;-61
2021/04/09 06:31:24;;;;;;;0.20;0.20;;;;;;;10.13;57.62;98864.25;5092024;28;20070;-59
2021/04/09 06:33:50;;;;;;;0.20;0.20;;;;;;;10.01;58.11;98857.84;5092135;28;20047;-60
2021/04/09 06:36:16;;;;;;;0.20;0.20;;;;;;;9.94;58.14;98857.13;5092221;28;20052;-59
2021/04/09 06:38:42;;;;;;;0.20;0.20;;;;;;;9.86;58.12;98852.75;5092120;28;20059;-59
2021/04/09 06:41:09;;;;;;;0.30;0.30;;;;;;;9.93;58.28;98852.69;5073705;28;20083;-60
2021/04/09 06:43:36;;;;;;;0.47;0.30;;;;;;;9.82;58.42;98851.56;5091936;28;20058;-61
2021/04/09 06:46:02;;;;;;;0.30;0.30;;;;;;;9.65;58.71;98852.16;5092020;28;20048;-60
2021/04/09 06:48:29;;;;;;;0.30;0.20;;;;;;;9.60;58.74;98849.25;5089875;28;20060;-59
2021/04/09 06:50:55;;;;;;;0.20;0.20;;;;;;;9.50;59.06;98853.59;5054955;28;20056;-59
2021/04/09 06:53:21;;;;;;;0.13;0.13;;;;;;;9.21;59.66;98853.25;5089440;28;20059;-60
2021/04/09 06:55:47;;;;;;;0.10;0.10;;;;;;;8.81;60.35;98850.84;5091708;28;20052;-59
2021/04/09 06:58:15;;;;;;;0.10;0.10;;;;;;;8.64;60.73;98856.00;5092020;28;20052;-59
2021/04/09 07:00:41;;;;;;;0.22;0.22;;;;;;;8.40;61.24;98852.97;5092020;28;20050;-60
2021/04/09 07:03:09;;;;;;;0.52;0.52;;;;;;;8.34;61.23;98862.06;5091713;28;20086;-59
2021/04/09 07:05:37;;;;;;;0.20;0.20;;;;;;;8.34;60.81;98854.69;5074065;28;20159;-60
2021/04/09 07:08:03;;;;;;;0.25;0.25;;;;;;;8.29;60.85;98862.72;5091723;28;20052;-60
2021/04/09 07:10:29;;;;;;;0.15;0.15;;;;;;;8.21;60.85;98863.81;5091960;28;20044;-61
2021/04/09 07:13:11;;;;;;;0.20;0.20;;;;;;;8.13;61.11;98876.91;5091918;28;20417;-59
2021/04/09 07:15:39;;;;;;;0.32;0.32;;;;;;;8.28;60.64;98872.00;5091557;28;20052;-59
2021/04/09 07:18:07;;;;;;;0.20;0.20;;;;;;;8.50;59.77;98864.31;5090337;28;20105;-59
2021/04/09 07:20:35;;;;;;;0.35;0.35;;;;;;;8.59;59.50;98859.41;5107658;28;20047;-61
2021/04/09 07:23:03;;;;;;;0.45;0.45;;;;;;;8.63;59.34;98876.22;5103341;28;20064;-60
2021/04/09 07:25:36;;;;;;;0.52;0.52;;;;;;;8.64;59.30;98880.66;5091294;28;20052;-61
2021/04/09 07:28:19;;;;;;;0.25;0.25;;;;;;;8.63;59.28;98882.56;5076258;28;20097;-61
2021/04/09 07:30:50;;;;;;;0.30;0.30;;;;;;;8.71;59.13;98879.53;5111491;28;20083;-60
2021/04/09 07:33:18;;;;;;;1.00;0.95;;;;;;;8.98;58.48;98876.63;5103498;28;20037;-60
2021/04/09 07:35:48;;;;;;;0.13;0.13;;;;;;;9.34;57.80;98872.28;5091377;28;20143;-63
2021/04/09 07:38:24;;;;;;;0.40;0.40;;;;;;;9.61;57.27;98875.63;5090933;28;20059;-61
2021/04/09 07:41:00;;;;;;;3.72;0.57;;;;;;;9.92;56.88;98872.94;5091244;28;20058;-59
2021/04/09 07:43:33;;;;;;;0.50;0.43;;;;;;;10.18;56.39;98889.06;5054247;28;20041;-60
2021/04/09 07:46:01;;;;;;;0.60;0.57;;;;;;;10.34;55.86;98898.63;5109273;28;20071;-60
2021/04/09 07:48:38;;;;;;;0.20;0.20;;;;;;;10.58;55.58;98906.13;5104235;28;20074;-59
2021/04/09 07:51:06;;;;;;;1.35;0.45;;;;;;;10.73;55.58;98912.03;5091371;28;20105;-61
2021/04/09 07:53:32;;;;;;;0.47;0.47;;;;;;;10.69;55.71;98906.19;5084784;28;20147;-61
2021/04/09 07:56:14;;;;;;;0.40;0.40;;;;;;;10.43;56.46;98901.06;5080265;28;20143;-62
2021/04/09 07:58:41;;;;;;;0.47;0.47;;;;;;;9.95;57.70;98897.16;5072276;28;20143;-60
2021/04/09 08:01:22;;;;;;;0.55;0.55;;;;;;;9.67;58.29;98898.53;5050550;28;20075;-60
2021/04/09 08:03:49;;;;;;;0.22;0.22;;;;;;;9.47;58.83;98899.56;5081013;28;20425;-61
2021/04/09 08:06:23;;;;;;;0.32;0.32;;;;;;;9.29;58.99;98918.72;5079105;28;20048;-60
2021/04/09 08:08:48;;;;;;;3.33;0.63;;;;;;;9.16;59.35;98916.06;5082789;28;20140;-61
2021/04/09 08:11:32;;;;;;;0.75;0.65;;;;;;;9.11;59.44;98908.53;5065718;28;20143;-60
2021/04/09 08:14:06;;;;;;;0.20;0.20;;;;;;;9.11;59.34;98898.44;5075354;28;20135;-61
2021/04/09 08:16:33;;;;;;;;;;;;;;;9.10;58.97;98902.22;5085806;28;20044;-61
2021/04/09 08:19:05;;;;;;;0.47;0.47;;;;;;;9.07;58.93;98888.97;5081294;28;19920;-59
2021/04/09 08:21:35;;;;;;;0.20;0.20;;;;;;;9.10;58.90;98882.22;5114648;28;20047;-60
2021/04/09 08:24:02;;;;;;;0.10;0.10;;;;;;;9.16;58.73;98881.31;5114724;28;20548;-60
2021/04/09 08:26:30;;;;;;;0.35;0.35;;;;;;;9.13;58.64;98892.72;5114728;28;20130;-61
2021/04/09 08:28:57;;;;;;;0.20;0.20;;;;;;;9.17;58.76;98890.38;5094913;28;20143;-59
2021/04/09 08:31:24;;;;;;;0.20;0.20;;;;;;;9.38;58.40;98884.50;5073863;28;20045;-61
2021/04/09 08:33:50;;;;;;;0.47;0.47;;;;;;;9.54;57.83;98896.78;5094823;28;20058;-60
2021/04/09 08:36:16;;;;;;;0.10;0.10;;;;;;;9.54;57.79;98907.75;5096853;28;20198;-59
2021/04/09 08:38:43;;;;;;;0.10;0.10;;;;;;;9.81;57.54;98891.84;5080925;28;20497;-60
2021/04/09 08:41:11;;;;;;;0.20;0.20;;;;;;;10.16;56.74;98896.72;5072022;28;20060;-60
2021/04/09 08:43:38;;;;;;;0.20;0.20;;;;;;;10.49;56.25;98906.44;5073988;28;20052;-63
2021/04/09 08:46:06;;;;;;;0.25;0.25;;;;;;;10.74;55.87;98913.72;5074137;28;20135;-60
2021/04/09 08:48:32;;;;;;;0.30;0.30;;;;;;;10.94;55.21;98913.41;5089551;28;20044;-59
2021/04/09 08:50:59;;;;;;;1.00;1.00;;;;;;;11.13;55.01;98911.44;5088907;28;20044;-61
2021/04/09 08:53:26;;;;;;;0.10;0.10;;;;;;;11.30;54.96;98921.72;5083937;28;20041;-59
2021/04/09 08:55:53;;;;;;;0.38;0.38;;;;;;;11.53;54.70;98912.69;5073655;28;20088;-61
2021/04/09 08:58:19;;;;;;;0.10;0.10;;;;;;;11.76;54.20;98920.06;5072699;28;20462;-61
2021/04/09 09:00:46;;;;;;;0.77;0.22;;;;;;;12.00;54.14;98915.44;5073780;28;20044;-61
2021/04/09 09:03:28;;;;;;;0.80;0.65;;;;;;;12.05;53.84;98911.94;5080089;28;20456;-60
2021/04/09 09:05:59;;;;;;;0.20;0.20;;;;;;;11.92;54.58;98919.34;5111724;28;20054;-59
2021/04/09 09:08:47;;;;;;;0.20;0.20;;;;;;;11.73;54.94;98918.66;5089288;28;20139;-59
2021/04/09 09:12:05;;;;;;;0.43;0.43;;;;;;;11.51;55.58;98912.91;5100289;28;20056;-60
2021/04/09 09:14:33;;;;;;;0.40;0.40;;;;;;;11.32;55.92;98908.56;5021975;28;20046;-62
2021/04/09 09:17:19;;;;;;;0.22;0.22;;;;;;;11.21;56.18;98921.25;5015113;28;20053;-61
2021/04/09 09:19:47;;;;;;;0.40;0.40;;;;;;;11.27;56.05;98916.72;4992357;28;20561;-62
2021/04/09 09:22:15;;;;;;;0.20;0.20;;;;;;;11.39;55.76;98903.81;4991432;28;20058;-62
2021/04/09 09:25:04;;;;;;;0.20;0.20;;;;;;;11.43;55.95;98907.75;4991857;28;20046;-59
2021/04/09 09:27:52;;;;;;;0.20;0.20;;;;;;;11.40;56.10;98905.50;4992007;28;20061;-61
2021/04/09 09:30:38;;;;;;;0.20;0.20;;;;;;;11.35;55.90;98908.09;4984079;28;20145;-63
2021/04/09 09:33:20;;;;;;;0.20;0.20;;;;;;;11.32;56.05;98914.06;4986216;28;20050;-62
2021/04/09 09:36:03;;;;;;;0.43;0.43;;;;;;;11.29;56.14;98915.41;4974978;28;20050;-60
2021/04/09 09:38:55;;;;;;;3.30;0.52;;;;;;;11.19;56.40;98913.22;4982417;28;20513;-63
2021/04/09 09:41:41;;;;;;;0.20;0.20;;;;;;;11.13;56.59;98919.69;4984185;28;20057;-61
2021/04/09 09:44:27;;;;;;;0.20;0.20;;;;;;;11.27;56.16;98927.72;4977210;28;20134;-59
2021/04/09 09:47:01;;;;;;;0.30;0.30;;;;;;;11.50;55.60;98927.72;4982604;28;20050;-60
2021/04/09 09:49:29;;;;;;;0.88;0.80;;;;;;;11.74;55.17;98927.72;4996139;28;20045;-61
2021/04/09 09:51:56;;;;;;;0.65;0.55;;;;;;;11.98;54.98;98933.25;5036730;28;20427;-61
2021/04/09 09:54:23;;;;;;;0.20;0.20;;;;;;;12.17;54.34;98939.44;5034728;28;20053;-61
2021/04/09 09:56:49;;;;;;;0.10;0.10;;;;;;;12.29;54.35;98942.16;5065496;28;20463;-60
2021/04/09 09:59:26;;;;;;;0.30;0.30;;;;;;;12.35;54.10;98935.69;5055140;28;20059;-61
2021/04/09 10:01:56;;;;;;;0.30;0.30;;;;;;;12.50;53.99;98933.25;5096277;28;20047;-60
2021/04/09 10:04:23;;;;;;;0.40;0.40;;;;;;;12.67;53.83;98940.75;5101594;28;20416;-62
2021/04/09 10:06:52;;;;;;;0.43;0.43;;;;;;;12.84;53.76;98944.38;5096962;28;20054;-60
2021/04/09 10:09:31;;;;;;;0.10;0.10;;;;;;;13.08;53.39;98942.34;5094709;28;20090;-61
2021/04/09 10:11:59;;;;;;;0.10;0.10;;;;;;;13.21;53.01;98945.88;5100381;28;20047;-60
2021/04/09 10:14:28;;;;;;;0.40;0.40;;;;;;;13.24;53.36;98954.47;5084121;28;20039;-61
2021/04/09 10:16:59;;;;;;;0.10;0.10;;;;;;;13.13;53.64;98947.09;5101059;28;20401;-61
2021/04/09 10:19:25;;;;;;;0.35;0.35;;;;;;;13.02;53.70;98964.56;5096501;28;20052;-59
2021/04/09 10:21:53;;;;;;;0.30;0.30;;;;;;;12.92;53.90;98965.19;5101167;28;20108;-60
2021/04/09 10:24:21;;;;;;;0.30;0.30;;;;;;;12.83;54.21;98956.47;5099912;28;20176;-61
2021/04/09 10:26:59;;;;;;;0.15;0.15;;;;;;;12.82;54.22;98957.56;5077743;28;20076;-60
2021/04/09 10:29:36;;;;;;;0.10;0.10;;;;;;;12.80;54.20;98956.97;5095798;28;20056;-61
2021/04/09 10:32:07;;;;;;;0.40;0.40;;;;;;;12.74;54.71;98969.00;5098667;28;20452;-59
2021/04/09 10:34:34;;;;;;;0.25;0.25;;;;;;;12.74;54.50;98969.00;5102569;28;20044;-59
2021/04/09 10:37:01;;;;;;;0.50;0.38;;;;;;;12.83;54.54;98961.16;5097517;28;20453;-62
2021/04/09 10:39:28;;;;;;;0.20;0.20;;;;;;;12.91;53.96;98974.53;5096668;28;20094;-59
2021/04/09 10:41:55;;;;;;;0.55;0.55;;;;;;;12.96;54.17;98969.97;5096117;28;20465;-60
2021/04/09 10:44:24;;;;;;;0.10;0.10;;;;;;;12.93;54.20;98978.72;5077619;28;20390;-62
2021/04/09 10:47:01;;;;;;;0.20;0.20;;;;;;;12.86;54.28;98967.00;5096907;28;20101;-61
2021/04/09 10:49:41;;;;;;;0.65;0.65;;;;;;;12.72;54.49;98963.72;5094502;28;20043;-61
2021/04/09 10:52:18;;;;;;;0.10;0.10;;;;;;;12.54;54.81;98961.13;5080236;28;20689;-63
2021/04/09 10:54:46;;;;;;;0.20;0.20;;;;;;;12.40;54.92;98960.59;5099682;28;20536;-60
2021/04/09 10:57:13;;;;;;;0.22;0.22;;;;;;;12.24;55.61;98963.00;5062049;28;20051;-62
2021/04/09 10:59:44;;;;;;;0.10;0.10;;;;;;;12.14;55.43;98970.22;5097880;28;20040;-60
2021/04/09 11:02:17;;;;;;;0.10;0.10;;;;;;;12.01;55.90;98960.28;5095733;28;20135;-61
2021/04/09 11:04:50;;;;;;;0.15;0.15;;;;;;;11.94;56.02;98967.81;5096610;28;20052;-60
2021/04/09 11:07:16;;;;;;;0.20;0.20;;;;;;;11.83;55.79;98972.22;5096578;28;20074;-60
2021/04/09 11:09:50;;;;;;;0.10;0.10;;;;;;;11.73;55.84;98965.41;5097627;28;20071;-60
2021/04/09 11:12:20;;;;;;;0.20;0.20;;;;;;;11.68;55.88;98967.19;5074470;28;20049;-60
2021/04/09 11:15:10;;;;;;;0.20;0.20;;;;;;;11.60;56.29;98965.66;5106558;28;20055;-61
2021/04/09 11:17:40;;;;;;;0.20;0.20;;;;;;;11.51;56.29;98973.41;5099800;28;20047;-59
2021/04/09 11:20:29;;;;;;;0.30;0.30;;;;;;;11.44;56.34;98963.56;5091900;28;20043;-60
2021/04/09 11:23:06;;;;;;;0.17;0.17;;;;;;;11.43;56.00;98954.50;5110029;28;20051;-60
2021/04/09 11:25:37;;;;;;;0.10;0.10;;;;;;;11.44;56.15;98961.69;5102054;28;20133;-60
2021/04/09 11:28:05;;;;;;;0.10;0.10;;;;;;;11.46;55.92;98959.53;5091909;28;20044;-59
2021/04/09 11:30:34;;;;;;;0.20;0.20;;;;;;;11.51;55.70;98962.41;5098612;28;20090;-59
2021/04/09 11:33:01;;;;;;;0.10;0.10;;;;;;;11.69;55.39;98957.84;5101485;28;20039;-59
2021/04/09 11:35:33;;;;;;;0.20;0.20;;;;;;;11.84;55.27;98965.66;5075385;28;20546;-60
2021/04/09 11:38:00;;;;;;;0.10;0.10;;;;;;;11.95;54.83;98964.81;5112001;28;20059;-59
2021/04/09 11:40:35;;;;;;;0.47;0.47;;;;;;;12.02;54.57;98962.78;5109082;28;20104;-59
2021/04/09 11:43:01;;;;;;;0.20;0.20;;;;;;;12.02;54.92;98972.97;5104755;28;20532;-60
2021/04/09 11:45:41;;;;;;;0.75;0.40;;;;;;;12.06;54.72;98968.66;5102060;28;20044;-59
2021/04/09 11:48:29;;;;;;;7.22;0.63;;;;;;;12.12;54.41;98972.34;5106903;27;20086;-60